sensor_id;sensor_type;location;lat;lon;timestamp;P1;durP1;ratioP1;P2;durP2;ratioP2
22070;SDS011;11200;51.488;6.668;2023-03-19T07:35:33;3.03;;;2.40;;
22070;SDS011;11200;51.488;6.668;2023-03-19T07:37:59;3.25;;;2.22;;
22070;SDS011;11200;51.488;6.668;2023-03-19T07:40:26;4.03;;;2.65;;
22070;SDS011;11200;51.488;6.668;2023-03-19T07:42:52;2.83;;;2.53;;
22070;SDS011;11200;51.488;6.668;2023-03-19T07:45:18;3.20;;;2.20;;
22070;SDS011;11200;51.488;6.668;2023-03-19T07:47:43;2.80;;;2.13;;
22070;SDS011;11200;51.488;6.668;2023-03-19T07:50:09;3.67;;;2.60;;
22070;SDS011;11200;51.488;6.668;2023-03-19T07:52:35;3.50;;;2.58;;
22070;SDS011;11200;51.488;6.668;2023-03-19T07:55:01;2.92;;;2.35;;
22070;SDS011;11200;51.488;6.668;2023-03-19T07:57:27;3.25;;;2.40;;
22070;SDS011;11200;51.488;6.668;2023-03-19T07:59:53;2.90;;;2.40;;
22070;SDS011;11200;51.488;6.668;2023-03-19T08:02:18;3.63;;;2.63;;
22070;SDS011;11200;51.488;6.668;2023-03-19T08:04:45;3.03;;;2.72;;
22070;SDS011;11200;51.488;6.668;2023-03-19T08:07:11;3.95;;;3.05;;
22070;SDS011;11200;51.488;6.668;2023-03-19T08:09:37;3.10;;;2.50;;
22070;SDS011;11200;51.488;6.668;2023-03-19T08:12:06;3.05;;;2.28;;
22070;SDS011;11200;51.488;6.668;2023-03-19T08:14:32;2.55;;;2.35;;
22070;SDS011;11200;51.488;6.668;2023-03-19T08:16:59;2.83;;;2.45;;
22070;SDS011;11200;51.488;6.668;2023-03-19T08:19:25;3.58;;;2.42;;
22070;SDS011;11200;51.488;6.668;2023-03-19T08:21:50;3.10;;;2.50;;
22070;SDS011;11200;51.488;6.668;2023-03-19T08:24:16;3.10;;;2.28;;
22070;SDS011;11200;51.488;6.668;2023-03-19T08:26:42;3.17;;;2.70;;
22070;SDS011;11200;51.488;6.668;2023-03-19T08:29:08;3.58;;;2.80;;
22070;SDS011;11200;51.488;6.668;2023-03-19T08:31:34;2.92;;;2.60;;
22070;SDS011;11200;51.488;6.668;2023-03-19T08:33:59;3.88;;;2.75;;
22070;SDS011;11200;51.488;6.668;2023-03-19T08:36:27;3.25;;;2.40;;
22070;SDS011;11200;51.488;6.668;2023-03-19T08:38:53;3.90;;;3.15;;
22070;SDS011;11200;51.488;6.668;2023-03-19T08:41:20;3.10;;;2.70;;
22070;SDS011;11200;51.488;6.668;2023-03-19T08:43:46;3.42;;;2.80;;
22070;SDS011;11200;51.488;6.668;2023-03-19T08:46:12;3.05;;;2.75;;
22070;SDS011;11200;51.488;6.668;2023-03-19T08:48:37;3.58;;;2.70;;
22070;SDS011;11200;51.488;6.668;2023-03-19T08:51:03;3.10;;;2.58;;
22070;SDS011;11200;51.488;6.668;2023-03-19T08:53:29;3.47;;;2.72;;
22070;SDS011;11200;51.488;6.668;2023-03-19T08:55:59;2.88;;;2.38;;
22070;SDS011;11200;51.488;6.668;2023-03-19T08:58:26;3.28;;;2.92;;
22070;SDS011;11200;51.488;6.668;2023-03-19T09:00:53;3.35;;;3.05;;
22070;SDS011;11200;51.488;6.668;2023-03-19T09:03:25;3.05;;;2.65;;
22070;SDS011;11200;51.488;6.668;2023-03-19T09:05:51;3.20;;;2.90;;
22070;SDS011;11200;51.488;6.668;2023-03-19T09:08:17;4.15;;;2.90;;
22070;SDS011;11200;51.488;6.668;2023-03-19T09:10:42;4.40;;;3.08;;
22070;SDS011;11200;51.488;6.668;2023-03-19T09:13:08;3.63;;;3.33;;
22070;SDS011;11200;51.488;6.668;2023-03-19T09:15:34;3.45;;;2.92;;
22070;SDS011;11200;51.488;6.668;2023-03-19T09:18:00;3.10;;;2.80;;
22070;SDS011;11200;51.488;6.668;2023-03-19T09:20:25;3.35;;;3.05;;
22070;SDS011;11200;51.488;6.668;2023-03-19T09:22:51;3.05;;;2.75;;
22070;SDS011;11200;51.488;6.668;2023-03-19T09:25:16;2.97;;;2.63;;
22070;SDS011;11200;51.488;6.668;2023-03-19T09:27:42;3.08;;;2.75;;
22070;SDS011;11200;51.488;6.668;2023-03-19T09:30:08;3.38;;;2.53;;
22070;SDS011;11200;51.488;6.668;2023-03-19T09:32:34;2.85;;;2.60;;
22070;SDS011;11200;51.488;6.668;2023-03-19T09:35:00;3.08;;;2.53;;
22070;SDS011;11200;51.488;6.668;2023-03-19T09:37:27;3.00;;;2.70;;
22070;SDS011;11200;51.488;6.668;2023-03-19T09:39:53;3.67;;;2.50;;
22070;SDS011;11200;51.488;6.668;2023-03-19T09:45:17;3.97;;;2.50;;
22070;SDS011;11200;51.488;6.668;2023-03-19T09:47:44;2.67;;;2.22;;
22070;SDS011;11200;51.488;6.668;2023-03-19T09:50:14;3.08;;;2.60;;
22070;SDS011;11200;51.488;6.668;2023-03-19T09:52:46;3.33;;;2.45;;
22070;SDS011;11200;51.488;6.668;2023-03-19T09:55:39;2.47;;;2.28;;
22070;SDS011;11200;51.488;6.668;2023-03-19T09:58:15;3.58;;;2.55;;
22070;SDS011;11200;51.488;6.668;2023-03-19T10:00:49;3.00;;;2.50;;
22070;SDS011;11200;51.488;6.668;2023-03-19T10:08:36;3.17;;;2.63;;
22070;SDS011;11200;51.488;6.668;2023-03-19T10:16:25;2.80;;;2.58;;
22070;SDS011;11200;51.488;6.668;2023-03-19T10:18:54;3.00;;;2.30;;
22070;SDS011;11200;51.488;6.668;2023-03-19T10:21:29;3.03;;;2.40;;
22070;SDS011;11200;51.488;6.668;2023-03-19T10:26:58;3.42;;;2.33;;
22070;SDS011;11200;51.488;6.668;2023-03-19T10:29:26;3.30;;;2.63;;
22070;SDS011;11200;51.488;6.668;2023-03-19T10:34:36;2.65;;;2.15;;
22070;SDS011;11200;51.488;6.668;2023-03-19T10:39:46;2.88;;;2.45;;
22070;SDS011;11200;51.488;6.668;2023-03-19T10:47:51;2.50;;;2.30;;
22070;SDS011;11200;51.488;6.668;2023-03-19T10:50:44;2.58;;;2.38;;
22070;SDS011;11200;51.488;6.668;2023-03-19T10:55:46;2.78;;;2.25;;
22070;SDS011;11200;51.488;6.668;2023-03-19T10:58:19;2.10;;;1.90;;
22070;SDS011;11200;51.488;6.668;2023-03-19T11:00:48;2.22;;;2.00;;
22070;SDS011;11200;51.488;6.668;2023-03-19T11:03:31;2.63;;;2.40;;
22070;SDS011;11200;51.488;6.668;2023-03-19T11:06:47;2.50;;;2.30;;
22070;SDS011;11200;51.488;6.668;2023-03-19T11:08:53;2.30;;;2.10;;
22070;SDS011;11200;51.488;6.668;2023-03-19T11:14:15;2.88;;;2.20;;
22070;SDS011;11200;51.488;6.668;2023-03-19T11:19:47;3.00;;;1.92;;
22070;SDS011;11200;51.488;6.668;2023-03-19T11:22:08;2.10;;;1.85;;
22070;SDS011;11200;51.488;6.668;2023-03-19T11:24:40;2.00;;;1.80;;
22070;SDS011;11200;51.488;6.668;2023-03-19T11:27:12;2.35;;;1.88;;
22070;SDS011;11200;51.488;6.668;2023-03-19T11:29:41;2.47;;;1.95;;
22070;SDS011;11200;51.488;6.668;2023-03-19T11:35:18;1.85;;;1.70;;
22070;SDS011;11200;51.488;6.668;2023-03-19T11:37:52;1.92;;;1.45;;
22070;SDS011;11200;51.488;6.668;2023-03-19T11:43:18;1.50;;;1.40;;
22070;SDS011;11200;51.488;6.668;2023-03-19T11:56:59;2.47;;;1.45;;
22070;SDS011;11200;51.488;6.668;2023-03-19T11:59:31;2.67;;;1.75;;
22070;SDS011;11200;51.488;6.668;2023-03-19T12:02:20;1.80;;;1.60;;
22070;SDS011;11200;51.488;6.668;2023-03-19T12:16:47;2.90;;;2.00;;
22070;SDS011;11200;51.488;6.668;2023-03-19T12:30:17;2.35;;;1.83;;
22070;SDS011;11200;51.488;6.668;2023-03-19T12:35:49;2.63;;;1.80;;
22070;SDS011;11200;51.488;6.668;2023-03-19T12:38:52;2.50;;;1.83;;
22070;SDS011;11200;51.488;6.668;2023-03-19T12:41:24;2.35;;;1.80;;
22070;SDS011;11200;51.488;6.668;2023-03-19T12:49:43;2.20;;;1.70;;
22070;SDS011;11200;51.488;6.668;2023-03-19T12:52:27;2.42;;;1.55;;
22070;SDS011;11200;51.488;6.668;2023-03-19T12:58:01;3.50;;;1.80;;
22070;SDS011;11200;51.488;6.668;2023-03-19T13:00:39;2.42;;;1.38;;
22070;SDS011;11200;51.488;6.668;2023-03-19T13:06:38;2.15;;;1.70;;
22070;SDS011;11200;51.488;6.668;2023-03-19T13:08:58;1.55;;;1.45;;
22070;SDS011;11200;51.488;6.668;2023-03-19T13:11:43;1.88;;;1.27;;
22070;SDS011;11200;51.488;6.668;2023-03-19T13:14:18;1.83;;;1.35;;
22070;SDS011;11200;51.488;6.668;2023-03-19T13:22:13;1.50;;;1.13;;
22070;SDS011;11200;51.488;6.668;2023-03-19T13:24:46;2.13;;;1.13;;
22070;SDS011;11200;51.488;6.668;2023-03-19T13:27:28;2.13;;;1.50;;
22070;SDS011;11200;51.488;6.668;2023-03-19T13:32:35;1.77;;;1.10;;
22070;SDS011;11200;51.488;6.668;2023-03-19T13:38:02;2.05;;;1.35;;
22070;SDS011;11200;51.488;6.668;2023-03-19T13:40:37;1.40;;;1.27;;
22070;SDS011;11200;51.488;6.668;2023-03-19T13:43:19;2.05;;;1.27;;
22070;SDS011;11200;51.488;6.668;2023-03-19T13:45:52;2.05;;;1.20;;
22070;SDS011;11200;51.488;6.668;2023-03-19T13:53:40;1.75;;;1.08;;
22070;SDS011;11200;51.488;6.668;2023-03-19T13:56:17;3.15;;;1.20;;
22070;SDS011;11200;51.488;6.668;2023-03-19T13:59:09;1.92;;;1.15;;
22070;SDS011;11200;51.488;6.668;2023-03-19T14:01:43;1.58;;;1.08;;
22070;SDS011;11200;51.488;6.668;2023-03-19T14:04:15;1.30;;;1.20;;
22070;SDS011;11200;51.488;6.668;2023-03-19T14:06:48;2.70;;;1.05;;
22070;SDS011;11200;51.488;6.668;2023-03-19T14:15:24;1.52;;;1.20;;
22070;SDS011;11200;51.488;6.668;2023-03-19T14:22:38;1.88;;;1.20;;
22070;SDS011;11200;51.488;6.668;2023-03-19T14:25:21;2.50;;;1.20;;
22070;SDS011;11200;51.488;6.668;2023-03-19T14:27:49;1.48;;;1.10;;
22070;SDS011;11200;51.488;6.668;2023-03-19T14:30:24;1.58;;;1.10;;
22070;SDS011;11200;51.488;6.668;2023-03-19T14:32:55;2.40;;;1.30;;
22070;SDS011;11200;51.488;6.668;2023-03-19T14:35:26;1.67;;;0.93;;
22070;SDS011;11200;51.488;6.668;2023-03-19T14:37:52;2.83;;;1.20;;
22070;SDS011;11200;51.488;6.668;2023-03-19T14:40:25;1.77;;;1.00;;
22070;SDS011;11200;51.488;6.668;2023-03-19T14:43:02;1.75;;;1.10;;
22070;SDS011;11200;51.488;6.668;2023-03-19T14:54:52;1.58;;;1.02;;
22070;SDS011;11200;51.488;6.668;2023-03-19T14:57:15;2.75;;;1.52;;
22070;SDS011;11200;51.488;6.668;2023-03-19T14:59:46;1.52;;;1.20;;
22070;SDS011;11200;51.488;6.668;2023-03-19T15:02:35;1.77;;;1.40;;
22070;SDS011;11200;51.488;6.668;2023-03-19T15:05:21;2.05;;;1.35;;
22070;SDS011;11200;51.488;6.668;2023-03-19T15:07:46;1.95;;;1.30;;
22070;SDS011;11200;51.488;6.668;2023-03-19T15:10:17;1.50;;;1.40;;
22070;SDS011;11200;51.488;6.668;2023-03-19T15:18:14;1.70;;;1.20;;
22070;SDS011;11200;51.488;6.668;2023-03-19T15:20:44;2.05;;;1.10;;
22070;SDS011;11200;51.488;6.668;2023-03-19T15:23:12;1.77;;;1.23;;
22070;SDS011;11200;51.488;6.668;2023-03-19T15:25:44;2.05;;;1.20;;
22070;SDS011;11200;51.488;6.668;2023-03-19T15:28:21;1.60;;;1.08;;
22070;SDS011;11200;51.488;6.668;2023-03-19T15:30:53;2.13;;;1.10;;
22070;SDS011;11200;51.488;6.668;2023-03-19T15:33:33;1.60;;;1.10;;
22070;SDS011;11200;51.488;6.668;2023-03-19T15:36:17;2.88;;;1.08;;
22070;SDS011;11200;51.488;6.668;2023-03-19T15:38:56;2.38;;;1.10;;
22070;SDS011;11200;51.488;6.668;2023-03-19T15:41:36;1.77;;;1.00;;
22070;SDS011;11200;51.488;6.668;2023-03-19T15:44:29;2.25;;;1.17;;
22070;SDS011;11200;51.488;6.668;2023-03-19T15:47:11;1.67;;;1.25;;
22070;SDS011;11200;51.488;6.668;2023-03-19T15:52:41;1.80;;;1.10;;
22070;SDS011;11200;51.488;6.668;2023-03-19T15:55:10;1.15;;;0.98;;
22070;SDS011;11200;51.488;6.668;2023-03-19T15:57:38;1.70;;;1.15;;
22070;SDS011;11200;51.488;6.668;2023-03-19T16:00:06;1.27;;;1.08;;
22070;SDS011;11200;51.488;6.668;2023-03-19T16:02:33;1.67;;;1.15;;
22070;SDS011;11200;51.488;6.668;2023-03-19T16:05:03;1.95;;;1.00;;
22070;SDS011;11200;51.488;6.668;2023-03-19T16:09:54;1.67;;;1.25;;
22070;SDS011;11200;51.488;6.668;2023-03-19T16:12:37;2.88;;;1.23;;
22070;SDS011;11200;51.488;6.668;2023-03-19T16:18:30;1.90;;;1.15;;
22070;SDS011;11200;51.488;6.668;2023-03-19T16:21:08;1.58;;;1.20;;
22070;SDS011;11200;51.488;6.668;2023-03-19T16:23:47;1.73;;;1.25;;
22070;SDS011;11200;51.488;6.668;2023-03-19T16:26:24;2.55;;;1.38;;
22070;SDS011;11200;51.488;6.668;2023-03-19T16:31:57;2.80;;;1.20;;
22070;SDS011;11200;51.488;6.668;2023-03-19T16:39:56;2.35;;;1.35;;
22070;SDS011;11200;51.488;6.668;2023-03-19T16:42:51;1.50;;;1.25;;
22070;SDS011;11200;51.488;6.668;2023-03-19T16:45:21;2.35;;;1.20;;
22070;SDS011;11200;51.488;6.668;2023-03-19T16:47:54;1.55;;;1.27;;
22070;SDS011;11200;51.488;6.668;2023-03-19T16:50:28;1.95;;;1.27;;
22070;SDS011;11200;51.488;6.668;2023-03-19T16:52:56;1.27;;;0.98;;
22070;SDS011;11200;51.488;6.668;2023-03-19T16:57:55;1.75;;;1.23;;
22070;SDS011;11200;51.488;6.668;2023-03-19T17:00:23;2.30;;;1.20;;
22070;SDS011;11200;51.488;6.668;2023-03-19T17:02:53;2.03;;;1.30;;
22070;SDS011;11200;51.488;6.668;2023-03-19T17:05:20;2.80;;;1.33;;
22070;SDS011;11200;51.488;6.668;2023-03-19T17:07:46;1.98;;;1.30;;
22070;SDS011;11200;51.488;6.668;2023-03-19T17:10:13;1.98;;;1.20;;
22070;SDS011;11200;51.488;6.668;2023-03-19T17:12:44;1.83;;;1.40;;
22070;SDS011;11200;51.488;6.668;2023-03-19T17:15:15;2.67;;;1.30;;
22070;SDS011;11200;51.488;6.668;2023-03-19T17:18:02;2.63;;;1.50;;
22070;SDS011;11200;51.488;6.668;2023-03-19T17:20:39;2.78;;;1.33;;
22070;SDS011;11200;51.488;6.668;2023-03-19T17:23:10;1.83;;;1.27;;
22070;SDS011;11200;51.488;6.668;2023-03-19T17:25:36;1.83;;;1.33;;
22070;SDS011;11200;51.488;6.668;2023-03-19T17:28:02;2.00;;;1.35;;
22070;SDS011;11200;51.488;6.668;2023-03-19T17:30:27;2.97;;;1.55;;
22070;SDS011;11200;51.488;6.668;2023-03-19T17:32:53;3.58;;;1.50;;
22070;SDS011;11200;51.488;6.668;2023-03-19T17:35:21;2.58;;;1.35;;
22070;SDS011;11200;51.488;6.668;2023-03-19T17:37:46;2.17;;;1.30;;
22070;SDS011;11200;51.488;6.668;2023-03-19T17:40:17;1.65;;;1.30;;
22070;SDS011;11200;51.488;6.668;2023-03-19T17:42:44;2.08;;;1.42;;
22070;SDS011;11200;51.488;6.668;2023-03-19T17:45:17;1.63;;;1.35;;
22070;SDS011;11200;51.488;6.668;2023-03-19T17:47:46;2.67;;;1.42;;
22070;SDS011;11200;51.488;6.668;2023-03-19T17:50:16;2.50;;;1.38;;
22070;SDS011;11200;51.488;6.668;2023-03-19T17:52:47;1.73;;;1.40;;
22070;SDS011;11200;51.488;6.668;2023-03-19T17:55:23;1.92;;;1.40;;
22070;SDS011;11200;51.488;6.668;2023-03-19T17:57:50;1.77;;;1.20;;
22070;SDS011;11200;51.488;6.668;2023-03-19T18:00:19;2.63;;;1.40;;
22070;SDS011;11200;51.488;6.668;2023-03-19T18:02:48;2.75;;;1.35;;
22070;SDS011;11200;51.488;6.668;2023-03-19T18:05:20;1.42;;;1.10;;
22070;SDS011;11200;51.488;6.668;2023-03-19T18:07:48;2.53;;;1.40;;
22070;SDS011;11200;51.488;6.668;2023-03-19T18:12:50;2.55;;;1.40;;
22070;SDS011;11200;51.488;6.668;2023-03-19T18:15:17;3.13;;;1.45;;
22070;SDS011;11200;51.488;6.668;2023-03-19T18:17:45;3.85;;;2.10;;
22070;SDS011;11200;51.488;6.668;2023-03-19T18:20:14;3.55;;;2.00;;
22070;SDS011;11200;51.488;6.668;2023-03-19T18:22:41;2.88;;;1.70;;
22070;SDS011;11200;51.488;6.668;2023-03-19T18:25:17;4.53;;;2.45;;
22070;SDS011;11200;51.488;6.668;2023-03-19T18:27:47;3.95;;;2.50;;
22070;SDS011;11200;51.488;6.668;2023-03-19T18:30:14;4.57;;;3.33;;
22070;SDS011;11200;51.488;6.668;2023-03-19T18:32:42;5.82;;;4.03;;
22070;SDS011;11200;51.488;6.668;2023-03-19T18:35:18;3.75;;;2.80;;
22070;SDS011;11200;51.488;6.668;2023-03-19T18:37:47;4.32;;;2.95;;
22070;SDS011;11200;51.488;6.668;2023-03-19T18:40:15;5.03;;;3.40;;
22070;SDS011;11200;51.488;6.668;2023-03-19T18:42:43;5.32;;;3.80;;
22070;SDS011;11200;51.488;6.668;2023-03-19T18:45:10;5.88;;;3.97;;
22070;SDS011;11200;51.488;6.668;2023-03-19T18:47:39;4.35;;;3.45;;
22070;SDS011;11200;51.488;6.668;2023-03-19T18:50:25;5.38;;;3.83;;
22070;SDS011;11200;51.488;6.668;2023-03-19T18:52:53;4.55;;;3.83;;
22070;SDS011;11200;51.488;6.668;2023-03-19T18:55:20;4.70;;;3.55;;
22070;SDS011;11200;51.488;6.668;2023-03-19T18:57:58;6.55;;;4.40;;
22070;SDS011;11200;51.488;6.668;2023-03-19T19:00:26;5.60;;;4.32;;
22070;SDS011;11200;51.488;6.668;2023-03-19T19:03:02;7.43;;;4.25;;
22070;SDS011;11200;51.488;6.668;2023-03-19T19:05:30;7.00;;;5.10;;
22070;SDS011;11200;51.488;6.668;2023-03-19T19:07:58;6.70;;;4.05;;
22070;SDS011;11200;51.488;6.668;2023-03-19T19:10:25;5.10;;;4.15;;
22070;SDS011;11200;51.488;6.668;2023-03-19T19:12:56;7.15;;;5.00;;
22070;SDS011;11200;51.488;6.668;2023-03-19T19:15:23;5.95;;;4.72;;
22070;SDS011;11200;51.488;6.668;2023-03-19T19:17:54;7.75;;;5.43;;
22070;SDS011;11200;51.488;6.668;2023-03-19T19:20:22;6.75;;;4.82;;
22070;SDS011;11200;51.488;6.668;2023-03-19T19:22:52;5.10;;;4.60;;
22070;SDS011;11200;51.488;6.668;2023-03-19T19:25:22;5.90;;;4.95;;
22070;SDS011;11200;51.488;6.668;2023-03-19T19:27:54;6.60;;;4.85;;
22070;SDS011;11200;51.488;6.668;2023-03-19T19:30:25;6.10;;;5.28;;
22070;SDS011;11200;51.488;6.668;2023-03-19T19:32:51;8.20;;;5.70;;
22070;SDS011;11200;51.488;6.668;2023-03-19T19:35:20;7.72;;;5.65;;
22070;SDS011;11200;51.488;6.668;2023-03-19T19:37:51;8.63;;;6.80;;
22070;SDS011;11200;51.488;6.668;2023-03-19T19:40:18;8.07;;;6.05;;
22070;SDS011;11200;51.488;6.668;2023-03-19T19:42:45;8.75;;;6.15;;
22070;SDS011;11200;51.488;6.668;2023-03-19T19:47:58;9.80;;;7.45;;
22070;SDS011;11200;51.488;6.668;2023-03-19T19:50:25;9.30;;;6.65;;
22070;SDS011;11200;51.488;6.668;2023-03-19T19:52:52;7.43;;;6.13;;
22070;SDS011;11200;51.488;6.668;2023-03-19T19:55:19;9.57;;;6.97;;
22070;SDS011;11200;51.488;6.668;2023-03-19T19:57:46;8.43;;;6.20;;
22070;SDS011;11200;51.488;6.668;2023-03-19T20:00:22;9.50;;;6.50;;
22070;SDS011;11200;51.488;6.668;2023-03-19T20:02:50;8.63;;;6.32;;
22070;SDS011;11200;51.488;6.668;2023-03-19T20:07:50;8.93;;;7.00;;
22070;SDS011;11200;51.488;6.668;2023-03-19T20:10:18;8.70;;;6.93;;
22070;SDS011;11200;51.488;6.668;2023-03-19T20:12:45;8.50;;;6.22;;
22070;SDS011;11200;51.488;6.668;2023-03-19T20:15:17;7.68;;;6.75;;
22070;SDS011;11200;51.488;6.668;2023-03-19T20:17:48;7.93;;;6.85;;
22070;SDS011;11200;51.488;6.668;2023-03-19T20:20:23;7.20;;;6.47;;
22070;SDS011;11200;51.488;6.668;2023-03-19T20:22:51;8.05;;;7.00;;
22070;SDS011;11200;51.488;6.668;2023-03-19T20:25:18;9.80;;;7.28;;
22070;SDS011;11200;51.488;6.668;2023-03-19T20:27:45;9.02;;;6.35;;
22070;SDS011;11200;51.488;6.668;2023-03-19T20:32:50;8.10;;;6.45;;
22070;SDS011;11200;51.488;6.668;2023-03-19T20:35:19;9.25;;;7.22;;
22070;SDS011;11200;51.488;6.668;2023-03-19T20:37:50;8.73;;;6.70;;
22070;SDS011;11200;51.488;6.668;2023-03-19T20:40:17;9.57;;;7.45;;
22070;SDS011;11200;51.488;6.668;2023-03-19T20:42:45;8.57;;;7.07;;
22070;SDS011;11200;51.488;6.668;2023-03-19T20:45:19;7.78;;;6.70;;
22070;SDS011;11200;51.488;6.668;2023-03-19T20:47:47;9.55;;;7.32;;
22070;SDS011;11200;51.488;6.668;2023-03-19T20:50:21;8.95;;;6.75;;
22070;SDS011;11200;51.488;6.668;2023-03-19T20:52:48;8.68;;;6.95;;
22070;SDS011;11200;51.488;6.668;2023-03-19T20:55:15;8.50;;;7.25;;
22070;SDS011;11200;51.488;6.668;2023-03-19T20:57:43;9.45;;;7.78;;
22070;SDS011;11200;51.488;6.668;2023-03-19T21:00:32;10.27;;;7.22;;
22070;SDS011;11200;51.488;6.668;2023-03-19T21:02:58;9.73;;;7.28;;
22070;SDS011;11200;51.488;6.668;2023-03-19T21:05:30;8.95;;;7.25;;
22070;SDS011;11200;51.488;6.668;2023-03-19T21:08:00;10.05;;;7.57;;
22070;SDS011;11200;51.488;6.668;2023-03-19T21:10:29;10.25;;;7.35;;
22070;SDS011;11200;51.488;6.668;2023-03-19T21:13:08;8.73;;;7.07;;
22070;SDS011;11200;51.488;6.668;2023-03-19T21:15:37;9.38;;;6.93;;
22070;SDS011;11200;51.488;6.668;2023-03-19T21:18:03;8.70;;;6.60;;
22070;SDS011;11200;51.488;6.668;2023-03-19T21:20:29;7.28;;;6.43;;
22070;SDS011;11200;51.488;6.668;2023-03-19T21:22:57;8.98;;;7.00;;
22070;SDS011;11200;51.488;6.668;2023-03-19T21:25:44;7.10;;;6.35;;
22070;SDS011;11200;51.488;6.668;2023-03-19T21:28:12;8.73;;;6.82;;
22070;SDS011;11200;51.488;6.668;2023-03-19T21:30:48;7.97;;;6.68;;
22070;SDS011;11200;51.488;6.668;2023-03-19T21:33:20;8.30;;;6.47;;
22070;SDS011;11200;51.488;6.668;2023-03-19T21:35:48;8.18;;;6.38;;
22070;SDS011;11200;51.488;6.668;2023-03-19T21:38:14;8.43;;;6.40;;
22070;SDS011;11200;51.488;6.668;2023-03-19T21:40:40;8.82;;;6.68;;
22070;SDS011;11200;51.488;6.668;2023-03-19T21:43:06;8.73;;;6.68;;
22070;SDS011;11200;51.488;6.668;2023-03-19T21:45:37;9.38;;;7.20;;
22070;SDS011;11200;51.488;6.668;2023-03-19T21:48:20;6.43;;;5.70;;
22070;SDS011;11200;51.488;6.668;2023-03-19T21:50:48;8.02;;;6.32;;
22070;SDS011;11200;51.488;6.668;2023-03-19T21:53:14;7.80;;;6.53;;
22070;SDS011;11200;51.488;6.668;2023-03-19T21:55:41;7.90;;;6.32;;
22070;SDS011;11200;51.488;6.668;2023-03-19T21:58:10;8.32;;;6.80;;
22070;SDS011;11200;51.488;6.668;2023-03-19T22:00:37;7.50;;;6.57;;
22070;SDS011;11200;51.488;6.668;2023-03-19T22:03:03;6.85;;;6.15;;
22070;SDS011;11200;51.488;6.668;2023-03-19T22:05:28;9.27;;;6.28;;
22070;SDS011;11200;51.488;6.668;2023-03-19T22:07:54;7.55;;;6.35;;
22070;SDS011;11200;51.488;6.668;2023-03-19T22:10:21;9.32;;;6.40;;
22070;SDS011;11200;51.488;6.668;2023-03-19T22:12:48;8.73;;;6.85;;
22070;SDS011;11200;51.488;6.668;2023-03-19T22:15:17;7.22;;;5.75;;
22070;SDS011;11200;51.488;6.668;2023-03-19T22:17:46;6.50;;;5.40;;
22070;SDS011;11200;51.488;6.668;2023-03-19T22:22:49;6.78;;;5.20;;
22070;SDS011;11200;51.488;6.668;2023-03-19T22:25:15;6.65;;;5.55;;
22070;SDS011;11200;51.488;6.668;2023-03-19T22:27:42;6.82;;;5.60;;
22070;SDS011;11200;51.488;6.668;2023-03-19T22:30:17;7.28;;;5.78;;
22070;SDS011;11200;51.488;6.668;2023-03-19T22:32:47;6.38;;;5.45;;
22070;SDS011;11200;51.488;6.668;2023-03-19T22:35:15;8.30;;;6.43;;
22070;SDS011;11200;51.488;6.668;2023-03-19T22:37:42;8.02;;;5.93;;
22070;SDS011;11200;51.488;6.668;2023-03-19T22:40:09;6.15;;;5.55;;
22070;SDS011;11200;51.488;6.668;2023-03-19T22:42:37;6.55;;;5.32;;
22070;SDS011;11200;51.488;6.668;2023-03-19T22:45:03;8.10;;;6.40;;
22070;SDS011;11200;51.488;6.668;2023-03-19T22:47:30;6.90;;;5.82;;
22070;SDS011;11200;51.488;6.668;2023-03-19T22:50:01;7.10;;;6.00;;
22070;SDS011;11200;51.488;6.668;2023-03-19T22:52:27;7.60;;;6.20;;
22070;SDS011;11200;51.488;6.668;2023-03-19T22:54:53;9.15;;;6.35;;
22070;SDS011;11200;51.488;6.668;2023-03-19T22:57:18;6.75;;;5.90;;
22070;SDS011;11200;51.488;6.668;2023-03-19T22:59:44;9.00;;;6.28;;
22070;SDS011;11200;51.488;6.668;2023-03-19T23:02:13;8.45;;;6.93;;
22070;SDS011;11200;51.488;6.668;2023-03-19T23:04:39;8.85;;;6.70;;
22070;SDS011;11200;51.488;6.668;2023-03-19T23:07:05;7.75;;;6.82;;
22070;SDS011;11200;51.488;6.668;2023-03-19T23:09:36;7.85;;;6.45;;
22070;SDS011;11200;51.488;6.668;2023-03-19T23:12:03;8.77;;;6.45;;
22070;SDS011;11200;51.488;6.668;2023-03-19T23:14:29;8.45;;;6.40;;
